Time;durP1;ratioP1;P1;durP2;ratioP2;P2;SDS_P1;SDS_P2;PMS_P1;PMS_P2;Temp;Humidity;BMP_temperature;BMP_pressure;BME280_temperature;BME280_humidity;BME280_pressure;Samples;Min_cycle;Max_cycle;Signal;HPM_P1;HPM_P2
2022/06/02 00:00:07;;;;;;;29.53;7.87;;;14.50;38.70;;;;;;5027417;28;20463;-63
2022/06/02 00:02:40;;;;;;;35.30;8.67;;;14.50;39.10;;;;;;5023875;28;20491;-64
2022/06/02 00:05:17;;;;;;;31.00;9.30;;;14.50;39.40;;;;;;5017232;28;20466;-64
2022/06/02 00:07:56;;;;;;;31.73;8.43;;;14.50;38.90;;;;;;5030459;28;20481;-62
2022/06/02 00:10:34;;;;;;;31.57;9.30;;;14.50;38.90;;;;;;5018334;28;20501;-63
2022/06/02 00:13:06;;;;;;;31.10;9.40;;;14.40;38.80;;;;;;5021698;28;20466;-66
2022/06/02 00:15:40;;;;;;;30.63;8.90;;;14.50;38.90;;;;;;5024767;28;20509;-63
2022/06/02 00:18:12;;;;;;;30.47;8.97;;;14.40;38.90;;;;;;5018092;28;20491;-66
2022/06/02 00:20:44;;;;;;;31.33;9.77;;;14.40;38.80;;;;;;5018832;28;20470;-63
2022/06/02 00:23:26;;;;;;;31.40;9.00;;;14.30;39.00;;;;;;5030888;28;20889;-63
2022/06/02 00:26:00;;;;;;;30.80;9.20;;;14.30;39.20;;;;;;5021768;28;21106;-62
2022/06/02 00:28:33;;;;;;;31.37;9.60;;;14.30;39.10;;;;;;5025014;28;20513;-63
2022/06/02 00:31:05;;;;;;;32.50;9.83;;;14.20;39.10;;;;;;5018426;28;20484;-63
2022/06/02 00:33:40;;;;;;;32.67;10.97;;;14.20;39.50;;;;;;5025035;28;20919;-64
2022/06/02 00:36:15;;;;;;;30.40;9.20;;;14.30;40.20;;;;;;5028243;28;20465;-63
2022/06/02 00:38:42;;;;;;;31.80;9.97;;;14.20;39.60;;;;;;5018154;28;20491;-63
2022/06/02 00:41:24;;;;;;;33.20;11.20;;;14.20;39.70;;;;;;5017991;28;20475;-63
2022/06/02 00:44:04;;;;;;;35.13;11.03;;;14.30;40.40;;;;;;5026691;28;20462;-63
2022/06/02 00:46:49;;;;;;;32.50;10.53;;;14.20;39.90;;;;;;5025639;28;20840;-63
2022/06/02 00:49:22;;;;;;;32.13;10.10;;;14.20;40.30;;;;;;5022972;28;20857;-65
2022/06/02 00:51:57;;;;;;;32.23;10.50;;;14.10;39.70;;;;;;5022248;28;20512;-64
2022/06/02 00:57:34;;;;;;;34.33;11.37;;;14.00;39.60;;;;;;5021551;28;20990;-65
2022/06/02 01:00:13;;;;;;;32.23;10.50;;;14.00;40.00;;;;;;5011517;28;20543;-63
2022/06/02 01:02:53;;;;;;;32.10;10.90;;;14.00;39.80;;;;;;5015430;28;20478;-63
2022/06/02 01:05:36;;;;;;;32.43;10.90;;;14.00;39.70;;;;;;5016438;28;20470;-64
2022/06/02 01:08:14;;;;;;;32.40;10.70;;;13.90;40.30;;;;;;5024698;28;20507;-63
2022/06/02 01:10:50;;;;;;;33.10;11.57;;;13.90;40.20;;;;;;5026491;28;20488;-64
2022/06/02 01:13:43;;;;;;;34.23;10.87;;;13.90;40.40;;;;;;5018451;28;20458;-65
2022/06/02 01:16:15;;;;;;;33.10;10.57;;;13.80;40.40;;;;;;5019225;28;20468;-64
2022/06/02 01:18:56;;;;;;;32.47;10.53;;;13.80;40.20;;;;;;5020567;28;20491;-63
2022/06/02 01:21:49;;;;;;;32.50;10.47;;;13.80;40.70;;;;;;5020785;28;20473;-63
2022/06/02 01:24:44;;;;;;;35.40;11.63;;;13.80;40.80;;;;;;5021345;28;20877;-64
2022/06/02 01:27:45;;;;;;;35.93;11.70;;;13.70;40.50;;;;;;5021189;28;20455;-65
2022/06/02 01:30:42;;;;;;;33.73;11.50;;;13.70;41.30;;;;;;4986072;28;21008;-65
2022/06/02 01:33:18;;;;;;;37.17;12.10;;;13.70;40.40;;;;;;5012370;28;20630;-64
2022/06/02 01:35:52;;;;;;;33.07;11.23;;;13.60;40.30;;;;;;5025695;28;20480;-64
2022/06/02 01:38:26;;;;;;;35.10;12.30;;;13.60;40.40;;;;;;5016542;28;20683;-63
2022/06/02 01:41:02;;;;;;;32.57;11.33;;;13.60;40.30;;;;;;5016631;28;20564;-65
2022/06/02 01:43:38;;;;;;;35.57;13.70;;;13.60;40.60;;;;;;5027515;28;20469;-63
2022/06/02 01:46:23;;;;;;;34.53;11.13;;;13.60;40.50;;;;;;5024392;28;20463;-63
2022/06/02 01:48:59;;;;;;;35.80;11.30;;;13.60;40.60;;;;;;5024480;28;20507;-63
2022/06/02 01:51:36;;;;;;;33.80;11.00;;;13.60;40.40;;;;;;5030385;28;20461;-63
2022/06/02 01:54:17;;;;;;;32.57;10.40;;;13.50;40.20;;;;;;5019140;28;20472;-62
2022/06/02 01:57:13;;;;;;;35.33;11.67;;;13.50;40.20;;;;;;5029077;28;20983;-63
2022/06/02 01:59:53;;;;;;;34.83;11.90;;;13.50;40.40;;;;;;5015442;28;20497;-63
2022/06/02 02:02:26;;;;;;;35.33;12.07;;;13.40;40.20;;;;;;5023062;28;20471;-65
2022/06/02 02:05:23;;;;;;;32.73;11.13;;;13.40;40.10;;;;;;5019663;28;20856;-64
2022/06/02 02:08:28;;;;;;;39.47;12.07;;;13.40;40.50;;;;;;5030972;28;20487;-63
2022/06/02 02:11:07;;;;;;;34.80;11.70;;;13.40;40.60;;;;;;4989460;28;20462;-63
2022/06/02 02:13:43;;;;;;;35.30;12.37;;;13.40;40.30;;;;;;5017236;28;20471;-65
2022/06/02 02:16:20;;;;;;;33.07;11.13;;;13.40;40.50;;;;;;5022554;28;20473;-64
2022/06/02 02:18:54;;;;;;;33.97;11.57;;;13.40;40.80;;;;;;5027278;28;20486;-63
2022/06/02 02:21:28;;;;;;;36.30;12.63;;;13.40;40.80;;;;;;5027879;28;20465;-64
2022/06/02 02:24:08;;;;;;;34.97;12.27;;;13.50;41.20;;;;;;5025043;28;20834;-64
2022/06/02 02:26:42;;;;;;;34.27;12.17;;;13.50;41.30;;;;;;5033038;28;20450;-65
2022/06/02 02:29:21;;;;;;;36.13;12.57;;;13.50;41.60;;;;;;5020596;28;20544;-64
2022/06/02 02:31:59;;;;;;;35.77;11.77;;;13.60;41.10;;;;;;5029362;28;20480;-62
2022/06/02 02:34:37;;;;;;;34.80;11.73;;;13.60;40.50;;;;;;5029766;28;20461;-63
2022/06/02 02:37:09;;;;;;;36.73;12.20;;;13.60;40.20;;;;;;5014440;28;20470;-63
2022/06/02 02:39:44;;;;;;;34.40;10.77;;;13.70;40.50;;;;;;5022445;28;20502;-64
2022/06/02 02:42:18;;;;;;;35.00;11.83;;;13.70;40.80;;;;;;5032759;28;20454;-66
2022/06/02 02:45:03;;;;;;;37.20;11.77;;;13.80;40.80;;;;;;5034990;28;20500;-63
2022/06/02 02:47:33;;;;;;;34.93;12.50;;;13.80;39.90;;;;;;5019327;28;20552;-64
2022/06/02 02:50:05;;;;;;;35.83;12.47;;;13.90;40.60;;;;;;5028350;28;20470;-65
2022/06/02 02:52:44;;;;;;;35.37;11.87;;;13.90;40.70;;;;;;5024785;28;20465;-63
2022/06/02 02:55:16;;;;;;;35.97;13.77;;;13.90;40.10;;;;;;5028003;28;20470;-62
2022/06/02 02:57:51;;;;;;;37.03;13.57;;;13.90;40.20;;;;;;5027101;28;20566;-66
2022/06/02 03:00:22;;;;;;;40.60;14.60;;;13.90;40.00;;;;;;5024456;28;20467;-64
2022/06/02 03:02:57;;;;;;;36.33;13.33;;;13.90;41.10;;;;;;5023342;28;20478;-63
2022/06/02 03:05:28;;;;;;;38.77;14.20;;;14.00;40.80;;;;;;5032430;28;20461;-65
2022/06/02 03:08:09;;;;;;;34.67;13.60;;;13.90;40.10;;;;;;5024839;28;20474;-63
2022/06/02 03:10:39;;;;;;;36.90;13.80;;;13.90;40.20;;;;;;5023262;28;20466;-65
2022/06/02 03:13:27;;;;;;;36.57;13.60;;;14.00;39.90;;;;;;5025321;28;21124;-64
2022/06/02 03:15:57;;;;;;;39.07;14.60;;;13.90;40.20;;;;;;5023696;28;20467;-65
2022/06/02 03:18:42;;;;;;;38.20;13.97;;;13.90;40.00;;;;;;5027913;28;20564;-63
2022/06/02 03:21:17;;;;;;;37.40;13.37;;;13.90;39.80;;;;;;5025368;28;20462;-62
2022/06/02 03:24:20;;;;;;;48.03;15.13;;;13.90;39.70;;;;;;5020193;28;20470;-64
2022/06/02 03:26:56;;;;;;;39.73;15.30;;;13.90;39.80;;;;;;5007379;28;20569;-63
2022/06/02 03:29:32;;;;;;;37.17;14.47;;;13.80;39.30;;;;;;5027494;28;20497;-63
2022/06/02 03:32:06;;;;;;;37.90;15.40;;;13.80;39.40;;;;;;5019570;28;20483;-64
2022/06/02 03:34:38;;;;;;;38.80;16.83;;;13.70;39.40;;;;;;5021543;28;20464;-63
2022/06/02 03:37:30;;;;;;;37.63;15.40;;;13.70;39.40;;;;;;5021744;28;20459;-65
2022/06/02 03:40:11;;;;;;;38.60;15.07;;;13.70;39.70;;;;;;5021592;28;20869;-63
2022/06/02 03:42:46;;;;;;;37.07;15.03;;;13.60;39.70;;;;;;5019979;28;20467;-64
2022/06/02 03:45:24;;;;;;;39.23;15.53;;;13.60;39.50;;;;;;5025570;28;20458;-64
2022/06/02 03:48:06;;;;;;;36.90;14.93;;;13.60;39.60;;;;;;5019508;28;20495;-63
2022/06/02 03:50:56;;;;;;;39.43;14.10;;;13.50;39.70;;;;;;5028349;28;21035;-63
2022/06/02 03:53:43;;;;;;;37.53;14.70;;;13.50;39.70;;;;;;5014910;28;20467;-65
2022/06/02 03:56:25;;;;;;;39.70;15.67;;;13.50;39.50;;;;;;5024140;28;20470;-65
2022/06/02 03:59:09;;;;;;;37.17;14.10;;;13.50;39.50;;;;;;5028056;28;20483;-66
2022/06/02 04:01:40;;;;;;;37.77;14.10;;;13.50;39.70;;;;;;5019778;28;20510;-62
2022/06/02 04:04:23;;;;;;;36.10;12.00;;;13.50;39.40;;;;;;5016847;28;20456;-63
2022/06/02 04:07:07;;;;;;;35.80;12.33;;;13.60;39.40;;;;;;5009299;28;20518;-64
2022/06/02 04:09:48;;;;;;;34.47;12.17;;;13.60;39.20;;;;;;5023789;28;20497;-63
2022/06/02 04:15:30;;;;;;;34.00;10.20;;;13.70;38.90;;;;;;5015658;28;20482;-64
2022/06/02 04:18:07;;;;;;;35.37;9.30;;;13.70;38.40;;;;;;5019129;28;20490;-67
2022/06/02 04:20:46;;;;;;;34.70;9.30;;;13.70;38.10;;;;;;5017653;28;20636;-67
2022/06/02 04:23:42;;;;;;;35.27;9.33;;;13.80;37.80;;;;;;5021824;28;20466;-63
2022/06/02 04:26:25;;;;;;;37.70;11.40;;;13.80;37.80;;;;;;5005092;28;20464;-63
2022/06/02 04:29:04;;;;;;;34.50;12.90;;;13.80;37.80;;;;;;5019447;28;20893;-65
2022/06/02 04:31:46;;;;;;;36.60;11.53;;;13.90;37.90;;;;;;5014489;28;20474;-63
2022/06/02 04:34:21;;;;;;;34.10;11.13;;;13.90;38.20;;;;;;5014442;28;20485;-66
2022/06/02 04:36:55;;;;;;;33.43;11.23;;;13.90;38.30;;;;;;5018848;28;20467;-65
2022/06/02 04:39:27;;;;;;;37.87;9.40;;;13.90;38.10;;;;;;5019632;28;20489;-64
2022/06/02 04:42:04;;;;;;;32.53;8.80;;;14.00;37.80;;;;;;5013558;28;20467;-64
2022/06/02 04:44:40;;;;;;;32.60;7.90;;;14.00;37.40;;;;;;5010798;28;20482;-62
2022/06/02 04:47:18;;;;;;;31.70;6.80;;;14.20;37.20;;;;;;5016020;28;20473;-62
2022/06/02 04:49:54;;;;;;;32.57;8.97;;;14.30;36.50;;;;;;5013835;28;21180;-64
2022/06/02 04:52:32;;;;;;;33.60;8.03;;;14.40;35.80;;;;;;5012111;28;20521;-66
2022/06/02 04:55:08;;;;;;;34.87;8.53;;;14.50;35.50;;;;;;5018283;28;20498;-62
2022/06/02 04:57:41;;;;;;;35.63;9.27;;;14.70;35.20;;;;;;5016847;28;20486;-68
2022/06/02 05:00:18;;;;;;;33.97;8.23;;;14.70;34.60;;;;;;5017562;28;20949;-64
2022/06/02 05:02:56;;;;;;;33.00;7.70;;;14.80;34.20;;;;;;5010997;28;20478;-65
2022/06/02 05:05:33;;;;;;;30.90;7.73;;;14.80;33.60;;;;;;5010971;28;20474;-63
2022/06/02 05:08:14;;;;;;;31.97;7.50;;;15.00;34.40;;;;;;5011216;28;20552;-62
2022/06/02 05:10:50;;;;;;;33.13;7.57;;;16.50;34.70;;;;;;5027810;28;20501;-63
2022/06/02 05:13:31;;;;;;;33.07;7.23;;;18.80;28.40;;;;;;5016201;28;20463;-64
2022/06/02 05:16:10;;;;;;;31.67;6.73;;;20.70;23.60;;;;;;5021017;28;20462;-65
2022/06/02 05:21:19;;;;;;;30.10;5.20;;;23.50;16.30;;;;;;5066836;22;20559;-63
2022/06/02 05:24:26;;;;;;;28.93;4.20;;;24.40;12.30;;;;;;5048507;28;20188;-63
2022/06/02 05:27:34;;;;;;;31.67;4.90;;;23.90;11.00;;;;;;5048884;28;21039;-63
2022/06/02 05:30:25;;;;;;;29.60;4.20;;;23.00;11.80;;;;;;5044150;28;20517;-64
2022/06/02 05:33:11;;;;;;;29.47;4.70;;;23.10;11.80;;;;;;5028589;28;20452;-63
2022/06/02 05:36:17;;;;;;;30.77;4.53;;;22.60;11.40;;;;;;5027897;28;20482;-62
2022/06/02 05:39:11;;;;;;;29.47;4.17;;;22.00;12.00;;;;;;5028094;28;20508;-64
2022/06/02 05:41:55;;;;;;;28.60;4.50;;;21.70;12.80;;;;;;5034426;23;20491;-61
2022/06/02 05:44:37;;;;;;;28.60;4.30;;;23.30;12.10;;;;;;5005481;28;20510;-61
2022/06/02 05:47:24;;;;;;;29.70;3.80;;;24.40;10.20;;;;;;5008578;28;20833;-61
2022/06/02 05:50:01;;;;;;;28.83;4.00;;;25.30;7.40;;;;;;5014831;28;20462;-61
2022/06/02 05:52:36;;;;;;;28.83;4.77;;;24.80;7.40;;;;;;5028231;28;20483;-61
2022/06/02 05:55:29;;;;;;;29.87;4.80;;;24.60;7.40;;;;;;5028372;28;20442;-63
2022/06/02 05:58:22;;;;;;;28.40;4.17;;;24.10;7.90;;;;;;5027856;28;20455;-61
2022/06/02 06:00:59;;;;;;;27.20;4.27;;;25.50;7.50;;;;;;5008297;28;20467;-62
2022/06/02 06:03:53;;;;;;;27.27;2.80;;;28.20;3.70;;;;;;5009225;28;20439;-61
2022/06/02 06:06:31;;;;;;;27.00;3.10;;;30.50;1.00;;;;;;5008126;28;20456;-62
2022/06/02 06:09:09;;;;;;;25.60;2.80;;;32.30;1.00;;;;;;5012782;28;20466;-61
2022/06/02 06:12:09;;;;;;;25.27;2.97;;;33.60;1.00;;;;;;5047587;28;21017;-61
2022/06/02 06:14:46;;;;;;;24.70;2.83;;;34.90;1.00;;;;;;5005864;28;20473;-61
2022/06/02 06:17:23;;;;;;;25.40;3.23;;;36.00;1.00;;;;;;5048027;28;20829;-62
2022/06/02 06:20:13;;;;;;;24.47;2.77;;;37.00;1.00;;;;;;5045906;28;20477;-62
2022/06/02 06:22:57;;;;;;;26.30;3.00;;;37.90;1.00;;;;;;5047526;28;20537;-65
2022/06/02 06:25:37;;;;;;;24.17;2.90;;;38.80;1.00;;;;;;5049783;28;20461;-65
2022/06/02 06:28:10;;;;;;;34.40;3.90;;;39.60;1.00;;;;;;5051438;28;20453;-65
2022/06/02 06:30:51;;;;;;;26.30;3.50;;;38.60;1.00;;;;;;5047452;28;21075;-65
2022/06/02 06:33:29;;;;;;;23.97;2.87;;;37.80;1.00;;;;;;5051111;28;20474;-65
2022/06/02 06:36:09;;;;;;;26.00;2.77;;;38.80;1.00;;;;;;5052130;28;20454;-65
2022/06/02 06:38:47;;;;;;;26.20;3.20;;;39.70;1.00;;;;;;5051568;28;20458;-65
2022/06/02 06:41:52;;;;;;;28.40;4.00;;;40.60;1.00;;;;;;5049081;28;20462;-65
2022/06/02 06:44:25;;;;;;;26.03;2.80;;;41.80;1.00;;;;;;5051388;28;20458;-65
2022/06/02 06:47:01;;;;;;;22.40;2.63;;;42.70;1.00;;;;;;5047697;28;20467;-65
2022/06/02 06:49:41;;;;;;;24.27;2.77;;;43.60;1.00;;;;;;5023885;28;20490;-65
2022/06/02 06:52:21;;;;;;;28.57;3.23;;;44.40;1.00;;;;;;5044382;28;20555;-65
2022/06/02 06:55:00;;;;;;;27.97;2.50;;;44.50;1.00;;;;;;5051878;28;20465;-64
2022/06/02 06:57:35;;;;;;;23.77;2.60;;;44.80;1.00;;;;;;5050838;28;20465;-64
2022/06/02 07:00:07;;;;;;;28.33;3.63;;;44.50;1.00;;;;;;5051125;28;20489;-64
2022/06/02 07:02:50;;;;;;;21.57;2.27;;;45.30;1.00;;;;;;5047078;28;20482;-64
2022/06/02 07:05:24;;;;;;;23.77;2.40;;;45.50;1.00;;;;;;5051046;28;20457;-64
2022/06/02 07:07:58;;;;;;;21.60;2.50;;;46.00;1.00;;;;;;5050619;28;20458;-64
2022/06/02 07:10:35;;;;;;;21.70;2.30;;;46.40;1.00;;;;;;5050929;28;20457;-64
2022/06/02 07:13:11;;;;;;;21.93;2.60;;;46.50;1.00;;;;;;5047756;28;20997;-64
2022/06/02 07:15:47;;;;;;;21.60;2.37;;;46.80;1.00;;;;;;5050266;28;20458;-64
2022/06/02 07:18:31;;;;;;;21.73;2.50;;;46.10;1.00;;;;;;5050768;28;20830;-64
2022/06/02 07:21:05;;;;;;;22.50;2.97;;;45.20;1.00;;;;;;5050173;28;20490;-64
2022/06/02 07:23:47;;;;;;;24.20;2.90;;;42.60;1.00;;;;;;5047354;28;20454;-64
2022/06/02 07:26:29;;;;;;;22.57;2.50;;;39.90;1.00;;;;;;5050511;28;20462;-64
2022/06/02 07:29:05;;;;;;;24.00;3.10;;;39.20;1.00;;;;;;5050886;28;21036;-64
2022/06/02 07:31:48;;;;;;;23.50;2.90;;;39.40;1.00;;;;;;5049741;28;20477;-64
2022/06/02 07:34:32;;;;;;;23.23;2.80;;;39.10;1.00;;;;;;5047745;28;20949;-64
2022/06/02 07:37:12;;;;;;;27.63;3.43;;;38.30;1.00;;;;;;5050241;28;20446;-65
2022/06/02 07:40:05;;;;;;;25.07;3.57;;;39.60;1.00;;;;;;5049578;28;20999;-65
2022/06/02 07:42:53;;;;;;;23.77;3.30;;;42.00;1.00;;;;;;5047143;28;20486;-65
2022/06/02 07:45:31;;;;;;;23.90;2.90;;;41.50;1.00;;;;;;5010545;28;20459;-65
2022/06/02 07:48:28;;;;;;;26.87;2.87;;;40.50;1.00;;;;;;5010599;28;20475;-65
2022/06/02 07:51:05;;;;;;;22.87;2.90;;;40.70;1.00;;;;;;5014112;28;20481;-66
2022/06/02 07:53:43;;;;;;;23.13;3.10;;;41.20;1.00;;;;;;5046379;28;20507;-65
2022/06/02 07:56:19;;;;;;;22.77;2.80;;;43.10;1.00;;;;;;5050185;28;20450;-65
2022/06/02 07:59:09;;;;;;;22.33;3.10;;;44.50;1.00;;;;;;5050225;28;20461;-65
2022/06/02 08:02:06;;;;;;;24.50;3.37;;;45.50;1.00;;;;;;5049422;28;20469;-66
2022/06/02 08:04:44;;;;;;;21.93;2.43;;;46.30;1.00;;;;;;5038013;28;20512;-66
2022/06/02 08:07:17;;;;;;;21.77;2.70;;;47.00;1.00;;;;;;5049165;28;20454;-66
2022/06/02 08:09:55;;;;;;;21.20;2.60;;;48.10;1.00;;;;;;5050484;28;20954;-65
2022/06/02 08:12:27;;;;;;;22.50;3.10;;;49.00;1.00;;;;;;5049915;28;20484;-65
2022/06/02 08:15:08;;;;;;;20.47;2.57;;;49.70;1.00;;;;;;5047742;28;20814;-65
2022/06/02 08:17:38;;;;;;;21.10;2.87;;;50.30;1.00;;;;;;5048846;28;20448;-65
2022/06/02 08:20:16;;;;;;;21.63;3.07;;;50.70;1.00;;;;;;5049782;28;20485;-65
2022/06/02 08:22:51;;;;;;;22.27;3.50;;;50.00;1.00;;;;;;5049112;28;20482;-65
2022/06/02 08:25:22;;;;;;;20.37;2.57;;;49.20;1.00;;;;;;5047208;28;20458;-65
2022/06/02 08:28:16;;;;;;;25.53;3.20;;;49.90;1.00;;;;;;5048152;28;20458;-64
2022/06/02 08:30:54;;;;;;;20.27;2.73;;;50.80;1.00;;;;;;5049274;28;20486;-65
2022/06/02 08:33:41;;;;;;;20.67;2.70;;;51.80;1.00;;;;;;5049351;28;21001;-65
2022/06/02 08:36:14;;;;;;;22.47;2.63;;;52.40;1.00;;;;;;5021821;28;20459;-65
2022/06/02 08:39:09;;;;;;;21.17;3.00;;;52.70;1.00;;;;;;5029210;28;20802;-65
2022/06/02 08:42:16;;;;;;;21.30;2.60;;;52.20;1.00;;;;;;4998593;28;20490;-65
2022/06/02 08:45:15;;;;;;;20.60;2.40;;;52.00;1.00;;;;;;5048523;28;20493;-65
2022/06/02 08:48:10;;;;;;;20.10;2.23;;;52.90;1.00;;;;;;4968022;28;20455;-65
2022/06/02 08:51:12;;;;;;;20.20;2.33;;;53.40;1.00;;;;;;5008098;28;20517;-65
2022/06/02 08:54:15;;;;;;;19.40;2.53;;;54.00;1.00;;;;;;5001818;28;20551;-65
2022/06/02 08:57:00;;;;;;;20.50;2.50;;;54.30;1.00;;;;;;5029561;28;20853;-65
2022/06/02 09:00:04;;;;;;;19.23;2.50;;;53.50;1.00;;;;;;5049240;28;20836;-65
2022/06/02 09:03:04;;;;;;;20.50;2.30;;;53.20;1.00;;;;;;5048269;28;20466;-65
2022/06/02 09:06:02;;;;;;;21.20;2.60;;;52.90;1.00;;;;;;5009655;28;20453;-65
2022/06/02 09:09:04;;;;;;;19.50;2.67;;;52.70;1.00;;;;;;5009472;28;20462;-65
2022/06/02 09:11:45;;;;;;;22.47;3.00;;;52.40;1.00;;;;;;4998743;28;20491;-65
2022/06/02 09:14:44;;;;;;;21.73;2.57;;;52.10;1.00;;;;;;5009308;28;20478;-65
2022/06/02 09:17:28;;;;;;;19.90;2.60;;;52.20;1.00;;;;;;5023069;28;20462;-65
2022/06/02 09:20:14;;;;;;;20.80;2.70;;;52.90;1.00;;;;;;5045980;28;20486;-65
2022/06/02 09:23:15;;;;;;;19.47;2.90;;;53.00;1.00;;;;;;5048978;28;20481;-65
2022/06/02 09:26:12;;;;;;;21.67;3.50;;;52.40;1.00;;;;;;5040818;28;20468;-65
2022/06/02 09:29:14;;;;;;;20.87;3.10;;;49.90;1.00;;;;;;5046035;28;20462;-64
2022/06/02 09:32:08;;;;;;;24.17;3.03;;;46.30;1.00;;;;;;5047933;28;20588;-65
2022/06/02 09:35:02;;;;;;;23.27;3.10;;;43.70;1.00;;;;;;5049250;28;20454;-64
2022/06/02 09:38:14;;;;;;;23.37;3.03;;;41.40;1.00;;;;;;5045643;28;20468;-64
2022/06/02 09:40:49;;;;;;;23.80;2.93;;;39.70;1.00;;;;;;4989737;28;20717;-64
2022/06/02 09:43:36;;;;;;;26.60;3.63;;;38.20;1.00;;;;;;5008042;28;20487;-64
2022/06/02 09:46:27;;;;;;;28.47;4.50;;;36.80;1.00;;;;;;5012301;28;20523;-64
2022/06/02 09:49:08;;;;;;;24.30;3.57;;;35.50;1.00;;;;;;5035778;28;20462;-64
2022/06/02 09:51:50;;;;;;;25.03;3.67;;;34.10;1.00;;;;;;5048885;28;20477;-64
2022/06/02 09:54:45;;;;;;;24.80;3.33;;;33.10;1.00;;;;;;5048419;28;20442;-64
2022/06/02 10:00:40;;;;;;;25.27;3.30;;;32.10;1.00;;;;;;5022346;28;20580;-64
2022/06/02 10:03:28;;;;;;;26.80;3.07;;;31.80;1.00;;;;;;5014563;28;20483;-64
2022/06/02 10:06:12;;;;;;;26.13;3.80;;;31.40;1.00;;;;;;5013358;28;20475;-64
2022/06/02 10:08:53;;;;;;;26.50;4.70;;;30.90;1.00;;;;;;5014599;28;20863;-64
2022/06/02 10:11:28;;;;;;;28.37;4.30;;;30.30;1.00;;;;;;5051994;28;20438;-64
2022/06/02 10:14:33;;;;;;;27.40;3.60;;;29.90;1.00;;;;;;5051739;28;20834;-64
2022/06/02 10:17:45;;;;;;;28.43;3.73;;;29.50;1.00;;;;;;5051633;28;20441;-64
2022/06/02 10:20:33;;;;;;;25.43;3.33;;;28.80;1.00;;;;;;5034176;28;20548;-64
2022/06/02 10:23:12;;;;;;;27.30;4.53;;;28.40;1.00;;;;;;5051400;28;20485;-64
2022/06/02 10:26:03;;;;;;;26.10;3.70;;;28.10;1.00;;;;;;5052305;28;20465;-64
2022/06/02 10:28:58;;;;;;;27.27;3.87;;;27.70;1.00;;;;;;5051233;28;20649;-64
2022/06/02 10:32:10;;;;;;;27.87;4.30;;;27.40;1.00;;;;;;5048612;28;20466;-64
2022/06/02 10:35:19;;;;;;;25.63;3.40;;;27.20;1.20;;;;;;4959885;28;20497;-64
2022/06/02 10:38:21;;;;;;;25.90;3.90;;;27.00;2.10;;;;;;5051916;28;20737;-64
2022/06/02 10:41:03;;;;;;;26.97;4.67;;;26.70;1.30;;;;;;5044213;28;20478;-63
2022/06/02 10:44:01;;;;;;;27.90;4.10;;;26.40;2.30;;;;;;5051105;28;20986;-63
2022/06/02 10:47:07;;;;;;;27.30;5.10;;;26.10;2.70;;;;;;5048954;28;20841;-63
2022/06/02 10:49:44;;;;;;;26.80;4.33;;;25.80;3.10;;;;;;5051171;28;20511;-63
2022/06/02 10:52:47;;;;;;;26.90;3.50;;;25.50;4.20;;;;;;5048424;28;20553;-63
2022/06/02 10:55:47;;;;;;;28.93;3.90;;;25.50;5.60;;;;;;5051490;28;20445;-63
2022/06/02 10:58:39;;;;;;;27.20;3.87;;;25.50;4.50;;;;;;5050796;28;20492;-63
2022/06/02 11:01:34;;;;;;;28.60;3.90;;;25.40;4.60;;;;;;5047457;28;20478;-63
2022/06/02 11:04:31;;;;;;;27.93;4.30;;;25.40;4.70;;;;;;5051053;28;20458;-63
2022/06/02 11:07:26;;;;;;;26.20;3.63;;;25.40;4.70;;;;;;5043922;28;20465;-63
2022/06/02 11:10:21;;;;;;;27.87;4.67;;;25.30;5.50;;;;;;5051070;28;20481;-63
2022/06/02 11:13:28;;;;;;;26.10;3.97;;;25.30;6.60;;;;;;5047973;28;20577;-63
2022/06/02 11:16:33;;;;;;;26.90;4.30;;;25.30;5.70;;;;;;5050742;28;20843;-63
2022/06/02 11:19:32;;;;;;;26.30;3.50;;;25.30;5.80;;;;;;5051651;28;20521;-63
2022/06/02 11:22:32;;;;;;;27.57;3.53;;;25.30;5.50;;;;;;5048491;28;20485;-63
2022/06/02 11:25:33;;;;;;;26.40;3.90;;;25.20;6.00;;;;;;5050459;28;20457;-63
2022/06/02 11:28:27;;;;;;;27.20;4.10;;;25.20;6.00;;;;;;5050416;28;20942;-63
2022/06/02 11:31:20;;;;;;;26.10;4.53;;;25.10;6.00;;;;;;5049486;28;21013;-63
2022/06/02 11:34:14;;;;;;;25.77;3.57;;;25.00;6.70;;;;;;5042552;28;20470;-62
2022/06/02 11:37:08;;;;;;;28.37;4.67;;;25.00;7.90;;;;;;5050964;28;20635;-63
2022/06/02 11:40:09;;;;;;;26.20;4.30;;;25.00;6.90;;;;;;5038099;28;20478;-63
2022/06/02 11:43:06;;;;;;;27.13;3.87;;;25.00;6.80;;;;;;5029110;28;21046;-62
2022/06/02 11:45:52;;;;;;;27.43;4.47;;;24.90;6.30;;;;;;5042314;28;20508;-63
2022/06/02 11:48:52;;;;;;;27.07;4.20;;;24.70;7.00;;;;;;5027137;28;20459;-63
2022/06/02 11:51:51;;;;;;;28.10;3.40;;;24.60;7.20;;;;;;5041033;28;20461;-63
2022/06/02 11:54:42;;;;;;;27.10;3.70;;;24.60;6.60;;;;;;5030040;28;20473;-63
2022/06/02 11:57:37;;;;;;;26.70;4.30;;;24.60;7.10;;;;;;5045064;28;20466;-64
2022/06/02 12:00:46;;;;;;;29.27;3.70;;;24.50;7.60;;;;;;5010370;28;20470;-63
2022/06/02 12:03:51;;;;;;;26.87;5.03;;;24.40;6.20;;;;;;4992209;28;20467;-64
2022/06/02 12:06:47;;;;;;;30.20;4.57;;;24.30;7.20;;;;;;5009616;28;20459;-64
2022/06/02 12:09:38;;;;;;;28.50;3.80;;;24.10;7.40;;;;;;5029908;28;20463;-64
2022/06/02 12:12:28;;;;;;;27.00;3.67;;;24.20;9.00;;;;;;5029177;28;20483;-64
2022/06/02 12:15:17;;;;;;;27.90;4.70;;;24.30;7.60;;;;;;5027510;28;20852;-64
2022/06/02 12:18:05;;;;;;;27.90;4.77;;;24.40;8.90;;;;;;5029022;28;20447;-64
2022/06/02 12:20:52;;;;;;;29.40;4.33;;;24.40;8.40;;;;;;5027081;28;20482;-64
2022/06/02 12:23:31;;;;;;;28.80;4.23;;;24.50;8.10;;;;;;5025816;28;20985;-64
2022/06/02 12:26:05;;;;;;;26.37;4.73;;;24.50;8.00;;;;;;4997139;28;20953;-63
2022/06/02 12:29:12;;;;;;;26.83;4.17;;;24.60;7.20;;;;;;5000643;28;20952;-65
2022/06/02 12:32:30;;;;;;;27.70;4.43;;;24.50;7.80;;;;;;5020537;28;20856;-64
2022/06/02 12:35:42;;;;;;;27.57;4.37;;;24.50;7.70;;;;;;4983687;28;20958;-64
2022/06/02 12:38:40;;;;;;;27.70;4.23;;;24.30;6.90;;;;;;4983951;28;20932;-63
2022/06/02 12:41:26;;;;;;;27.57;3.60;;;24.10;7.20;;;;;;5012276;28;20479;-64
2022/06/02 12:44:38;;;;;;;28.63;4.00;;;24.20;8.10;;;;;;5008536;28;21199;-64
2022/06/02 12:47:22;;;;;;;25.90;3.50;;;24.60;8.60;;;;;;5034309;28;20462;-64
2022/06/02 12:50:25;;;;;;;27.13;5.07;;;25.20;7.70;;;;;;5027400;28;20470;-64
2022/06/02 12:53:36;;;;;;;28.40;3.83;;;25.60;5.90;;;;;;4908865;29;20480;-64
2022/06/02 12:56:34;;;;;;;27.53;3.03;;;25.70;5.30;;;;;;5022782;28;20461;-64
2022/06/02 12:59:36;;;;;;;27.43;3.40;;;25.90;6.20;;;;;;5048032;28;20565;-64
2022/06/02 13:02:08;;;;;;;29.93;4.27;;;26.00;6.50;;;;;;5046638;28;20515;-64
2022/06/02 13:05:05;;;;;;;26.03;3.40;;;26.00;5.90;;;;;;5047651;28;20462;-64
2022/06/02 13:08:11;;;;;;;26.17;3.80;;;25.80;6.80;;;;;;5044227;28;20664;-64
2022/06/02 13:10:49;;;;;;;26.17;3.90;;;25.80;6.80;;;;;;5047055;28;20446;-62
2022/06/02 13:13:41;;;;;;;26.83;3.67;;;25.80;6.20;;;;;;5047289;28;20985;-62
2022/06/02 13:16:59;;;;;;;26.40;4.80;;;25.70;5.60;;;;;;5044144;28;20446;-61
2022/06/02 13:19:46;;;;;;;27.00;4.07;;;25.70;5.40;;;;;;5019541;28;20941;-62
2022/06/02 13:22:36;;;;;;;26.43;3.83;;;25.60;5.10;;;;;;5047340;28;20877;-59
2022/06/02 13:25:26;;;;;;;27.20;4.30;;;25.50;5.10;;;;;;4999099;28;20819;-61
2022/06/02 13:28:13;;;;;;;26.10;3.97;;;25.60;5.10;;;;;;5047771;28;20446;-62
2022/06/02 13:31:14;;;;;;;27.73;4.20;;;25.80;5.60;;;;;;5041905;28;20835;-61
2022/06/02 13:34:09;;;;;;;26.40;3.40;;;26.00;5.70;;;;;;5048124;28;20437;-61
2022/06/02 13:36:45;;;;;;;27.00;3.90;;;26.10;4.70;;;;;;5050557;28;20480;-62
2022/06/02 13:39:54;;;;;;;26.50;3.73;;;25.90;4.80;;;;;;5036733;28;20454;-61
2022/06/02 13:42:49;;;;;;;28.20;3.80;;;25.60;5.50;;;;;;5026777;28;20479;-61
2022/06/02 13:45:45;;;;;;;26.80;3.97;;;25.40;5.60;;;;;;5031887;28;20978;-61
2022/06/02 13:48:53;;;;;;;26.90;3.73;;;25.30;6.40;;;;;;5030330;28;20598;-61
2022/06/02 13:52:05;;;;;;;26.63;4.20;;;25.30;7.00;;;;;;5043313;28;20458;-62
2022/06/02 13:58:39;;;;;;;28.33;3.63;;;25.60;6.10;;;;;;4969179;28;20488;-61
2022/06/02 14:01:22;;;;;;;26.93;3.57;;;25.80;6.40;;;;;;5048977;28;20748;-62
2022/06/02 14:04:31;;;;;;;27.20;3.93;;;25.90;6.20;;;;;;5051945;28;20462;-61
2022/06/02 14:07:16;;;;;;;28.50;3.97;;;26.00;5.70;;;;;;4949600;29;20462;-61
2022/06/02 14:09:53;;;;;;;26.57;3.70;;;25.90;4.60;;;;;;5039342;28;20485;-61
2022/06/02 14:12:43;;;;;;;27.43;4.07;;;25.80;4.50;;;;;;5047869;28;20492;-62
2022/06/02 14:15:23;;;;;;;27.50;3.47;;;25.80;4.60;;;;;;5051126;28;20446;-61
2022/06/02 14:18:12;;;;;;;28.47;4.73;;;25.70;5.30;;;;;;5050046;28;20488;-61
2022/06/02 14:20:50;;;;;;;27.10;3.80;;;25.60;5.30;;;;;;5050345;28;20484;-62
2022/06/02 14:23:30;;;;;;;26.53;4.07;;;25.50;5.80;;;;;;5047640;28;20485;-62
2022/06/02 14:26:06;;;;;;;27.50;3.73;;;25.50;5.30;;;;;;5050240;28;20442;-62
2022/06/02 14:28:51;;;;;;;25.97;3.60;;;25.50;5.80;;;;;;5050453;28;20469;-62